Time;durP1;ratioP1;P1;durP2;ratioP2;P2;SDS_P1;SDS_P2;PMS_P1;PMS_P2;Temp;Humidity;BMP_temperature;BMP_pressure;BME280_temperature;BME280_humidity;BME280_pressure;Samples;Min_cycle;Max_cycle;Signal;HPM_P1;HPM_P2
2021/08/11 00:02:37;;;;;;;10.30;9.30;;;;;;;16.30;76.73;101625.28;5982287;29;20236;-59
2021/08/11 00:05:59;;;;;;;9.77;8.93;;;;;;;16.46;76.35;101631.09;5978508;29;20780;-58
2021/08/11 00:09:19;;;;;;;10.90;8.87;;;;;;;16.26;76.81;101634.97;5979732;29;20240;-61
2021/08/11 00:12:40;;;;;;;8.73;8.03;;;;;;;16.61;75.87;101633.41;5977012;29;20288;-60
2021/08/11 00:16:02;;;;;;;8.60;7.67;;;;;;;16.67;75.30;101635.91;5982083;29;20698;-58
2021/08/11 00:19:23;;;;;;;9.40;8.60;;;;;;;16.68;74.64;101627.13;5974693;29;20276;-59
2021/08/11 00:22:45;;;;;;;10.90;9.80;;;;;;;16.51;75.18;101642.38;5980211;29;20262;-60
2021/08/11 00:26:06;;;;;;;10.23;9.00;;;;;;;16.53;75.21;101643.22;5978771;29;20236;-60
2021/08/11 00:29:27;;;;;;;9.13;8.00;;;;;;;16.72;74.70;101641.06;5978445;29;20263;-58
2021/08/11 00:32:48;;;;;;;9.10;8.03;;;;;;;16.47;75.20;101638.94;5978067;29;20243;-60
2021/08/11 00:36:09;;;;;;;10.07;9.07;;;;;;;16.36;76.27;101637.44;5990457;29;20240;-60
2021/08/11 00:39:33;;;;;;;9.97;9.07;;;;;;;16.43;75.78;101639.06;5992424;29;20239;-59
2021/08/11 00:42:56;;;;;;;10.33;9.40;;;;;;;16.54;75.47;101630.03;5977507;29;20232;-60
2021/08/11 00:46:18;;;;;;;10.27;9.43;;;;;;;16.50;75.03;101638.03;5967958;29;20766;-60
2021/08/11 00:49:42;;;;;;;9.87;8.87;;;;;;;16.28;76.13;101638.44;5983806;29;20236;-58
2021/08/11 00:53:07;;;;;;;11.20;10.20;;;;;;;16.12;76.64;101634.41;5980688;29;20232;-60
2021/08/11 00:56:34;;;;;;;10.17;9.17;;;;;;;16.34;75.62;101633.09;5978403;29;20247;-60
2021/08/11 00:59:57;;;;;;;11.37;10.27;;;;;;;16.04;76.58;101633.69;5976237;29;20251;-59
2021/08/11 01:03:20;;;;;;;10.43;9.37;;;;;;;16.31;75.90;101635.75;5989793;29;20275;-61
2021/08/11 01:06:42;;;;;;;11.23;10.03;;;;;;;16.40;75.14;101641.72;5992426;29;20243;-61
2021/08/11 01:10:07;;;;;;;10.00;9.13;;;;;;;16.57;74.45;101639.63;5974540;29;20729;-60
2021/08/11 01:13:33;;;;;;;8.90;8.10;;;;;;;16.61;74.21;101635.16;5976509;29;20686;-60
2021/08/11 01:16:55;;;;;;;9.93;8.97;;;;;;;16.59;74.00;101631.72;5978281;29;20244;-58
2021/08/11 01:20:16;;;;;;;10.50;9.60;;;;;;;16.54;74.02;101635.31;5984983;29;20232;-60
2021/08/11 01:23:43;;;;;;;12.10;10.90;;;;;;;16.47;74.63;101632.81;5977014;29;20235;-60
2021/08/11 01:27:29;;;;;;;11.97;10.87;;;;;;;16.56;74.03;101626.53;5977280;29;20239;-60
2021/08/11 01:31:01;;;;;;;10.70;9.70;;;;;;;16.29;75.13;101624.41;5958841;29;20319;-60
2021/08/11 01:34:32;;;;;;;11.87;10.80;;;;;;;16.30;75.04;101626.16;5980680;29;20742;-59
2021/08/11 01:37:56;;;;;;;10.87;9.77;;;;;;;16.56;74.08;101622.13;5979291;29;20251;-60
2021/08/11 01:41:20;;;;;;;15.13;11.03;;;;;;;16.12;75.58;101631.78;5976442;29;20248;-59
2021/08/11 01:44:47;;;;;;;11.17;10.23;;;;;;;15.99;76.32;101640.78;5962098;29;20241;-59
2021/08/11 01:48:12;;;;;;;11.40;10.20;;;;;;;16.33;74.70;101636.59;5966982;29;20241;-59
2021/08/11 01:51:39;;;;;;;12.27;11.07;;;;;;;16.27;74.90;101636.72;5972698;29;20241;-60
2021/08/11 01:55:02;;;;;;;13.27;9.70;;;;;;;16.49;74.13;101636.28;5989838;29;20267;-58
2021/08/11 01:58:28;;;;;;;9.93;9.13;;;;;;;16.37;74.52;101644.44;5950785;29;20525;-60
2021/08/11 02:01:50;;;;;;;10.33;9.53;;;;;;;16.37;74.24;101644.44;5977355;29;20243;-59
2021/08/11 02:05:14;;;;;;;12.43;11.10;;;;;;;16.31;74.59;101648.91;5992853;29;20236;-58
2021/08/11 02:08:41;;;;;;;12.57;11.37;;;;;;;16.10;75.67;101649.31;5968392;29;20232;-59
2021/08/11 02:12:07;;;;;;;12.90;11.30;;;;;;;16.14;75.55;101661.50;5983590;29;20609;-60
2021/08/11 02:15:28;;;;;;;12.50;11.20;;;;;;;15.78;76.63;101648.16;5992616;29;20263;-58
2021/08/11 02:18:49;;;;;;;12.70;11.47;;;;;;;16.08;76.00;101654.59;5982938;29;20236;-60
2021/08/11 02:22:13;;;;;;;13.17;11.97;;;;;;;16.14;75.67;101648.38;5990263;29;20236;-59
2021/08/11 02:25:35;;;;;;;13.23;12.10;;;;;;;15.96;76.65;101653.97;5963146;29;20240;-60
2021/08/11 02:29:23;;;;;;;12.63;11.30;;;;;;;16.23;75.33;101640.31;5991645;29;20244;-59
2021/08/11 02:32:51;;;;;;;13.50;12.30;;;;;;;16.03;75.67;101652.94;5985630;29;20269;-59
2021/08/11 02:36:23;;;;;;;13.30;11.93;;;;;;;16.03;75.64;101648.59;5963266;29;20252;-59
2021/08/11 02:39:50;;;;;;;13.17;12.07;;;;;;;16.23;75.00;101640.31;5982748;29;20237;-60
2021/08/11 02:43:18;;;;;;;13.67;12.37;;;;;;;16.22;75.07;101656.09;5972075;29;20250;-60
2021/08/11 02:46:42;;;;;;;13.97;12.57;;;;;;;15.94;75.79;101662.75;5962691;29;20247;-59
2021/08/11 02:50:05;;;;;;;13.93;12.27;;;;;;;15.93;76.27;101674.13;5958299;29;20244;-60
2021/08/11 02:53:30;;;;;;;14.73;13.47;;;;;;;15.97;76.14;101671.47;5983010;29;20239;-59
2021/08/11 02:56:51;;;;;;;15.20;13.90;;;;;;;15.93;76.53;101678.53;5977185;29;20244;-61
2021/08/11 03:00:15;;;;;;;12.73;11.43;;;;;;;16.16;75.68;101677.25;5989543;29;20236;-60
2021/08/11 03:03:37;;;;;;;12.73;11.63;;;;;;;15.85;76.06;101676.03;5989140;29;20822;-60
2021/08/11 03:06:58;;;;;;;16.60;14.10;;;;;;;15.64;77.66;101673.75;5969740;29;20636;-59
2021/08/11 03:10:20;;;;;;;14.20;12.77;;;;;;;15.86;77.24;101672.53;5980806;29;20244;-60
2021/08/11 03:13:42;;;;;;;15.00;13.63;;;;;;;15.76;77.36;101681.47;5977409;29;20635;-60
2021/08/11 03:17:10;;;;;;;15.20;13.80;;;;;;;15.96;76.22;101669.75;5987399;29;20240;-60
2021/08/11 03:20:33;;;;;;;13.77;12.57;;;;;;;16.01;76.01;101671.38;5969682;29;20642;-60
2021/08/11 03:23:53;;;;;;;13.90;12.50;;;;;;;16.24;75.16;101678.81;5967123;29;20260;-60
2021/08/11 03:27:15;;;;;;;15.57;12.87;;;;;;;16.14;74.89;101679.91;5976322;29;20809;-60
2021/08/11 03:30:36;;;;;;;13.90;12.60;;;;;;;16.24;74.61;101683.22;5967068;29;20635;-60
2021/08/11 03:33:59;;;;;;;15.17;13.73;;;;;;;16.42;73.71;101676.72;5976667;29;20235;-61
2021/08/11 03:37:20;;;;;;;15.13;13.50;;;;;;;16.11;74.49;101679.94;5991237;29;20247;-61
2021/08/11 03:40:45;;;;;;;14.00;12.60;;;;;;;15.96;75.46;101675.00;5963689;29;20240;-61
2021/08/11 03:44:08;;;;;;;14.97;13.57;;;;;;;16.02;75.43;101673.13;5978009;29;20232;-60
2021/08/11 03:47:32;;;;;;;16.30;14.67;;;;;;;15.96;75.46;101688.13;5990932;29;20261;-60
2021/08/11 03:50:55;;;;;;;14.80;13.40;;;;;;;15.99;75.08;101678.41;5965425;29;20319;-60
2021/08/11 03:54:16;;;;;;;14.77;13.60;;;;;;;15.68;76.51;101683.28;5975327;29;20259;-60
2021/08/11 03:57:38;;;;;;;15.10;13.63;;;;;;;15.82;75.73;101691.88;5993012;29;20256;-61
2021/08/11 04:01:00;;;;;;;18.57;16.87;;;;;;;16.01;75.44;101683.63;5967739;29;21064;-60
2021/08/11 04:04:21;;;;;;;17.00;15.30;;;;;;;16.07;74.76;101683.53;5981312;29;20252;-60
2021/08/11 04:07:43;;;;;;;16.53;14.83;;;;;;;16.09;75.02;101687.88;5971434;29;20667;-60
2021/08/11 04:11:04;;;;;;;15.70;14.10;;;;;;;16.12;74.82;101686.94;5975129;29;20236;-60
2021/08/11 04:14:25;;;;;;;20.57;18.63;;;;;;;16.05;75.13;101678.31;5982957;29;20631;-60
2021/08/11 04:17:45;;;;;;;18.07;16.37;;;;;;;15.98;75.10;101688.97;5957735;29;20575;-60
2021/08/11 04:21:06;;;;;;;15.10;13.80;;;;;;;16.08;75.19;101693.16;5975452;29;20399;-61
2021/08/11 04:24:29;;;;;;;22.67;20.60;;;;;;;16.14;74.82;101685.16;5980903;29;20398;-61
2021/08/11 04:27:50;;;;;;;16.20;14.90;;;;;;;16.29;74.51;101687.50;5967045;29;20560;-61
2021/08/11 04:31:10;;;;;;;16.97;15.37;;;;;;;16.29;74.18;101682.25;5964574;29;20232;-60
2021/08/11 04:34:31;;;;;;;15.57;14.13;;;;;;;16.03;75.43;101680.13;5982230;29;20606;-59
2021/08/11 04:37:52;;;;;;;19.47;17.47;;;;;;;16.27;74.60;101686.66;5975194;29;20388;-60
2021/08/11 04:41:15;;;;;;;25.87;23.60;;;;;;;16.49;74.20;101683.63;5970787;29;20499;-59
2021/08/11 04:44:36;;;;;;;16.07;14.33;;;;;;;16.19;75.32;101690.31;5980473;29;20228;-60
2021/08/11 04:47:57;;;;;;;15.37;13.87;;;;;;;16.56;73.85;101695.75;5967631;29;20241;-60
2021/08/11 04:51:18;;;;;;;17.20;15.57;;;;;;;16.53;74.15;101691.41;5966448;29;20276;-60
2021/08/11 04:54:39;;;;;;;15.83;14.23;;;;;;;16.74;73.43;101702.38;5977478;29;20237;-59
2021/08/11 04:58:01;;;;;;;15.00;13.50;;;;;;;16.58;74.00;101703.63;5980720;29;20947;-60
2021/08/11 05:01:22;;;;;;;16.60;14.90;;;;;;;16.30;75.16;101710.28;5981681;29;20244;-60
2021/08/11 05:04:43;;;;;;;17.87;14.33;;;;;;;16.51;74.51;101702.84;5980283;29;20244;-59
2021/08/11 05:08:04;;;;;;;15.13;13.70;;;;;;;16.88;72.65;101707.38;5968478;29;20224;-59
2021/08/11 05:11:25;;;;;;;15.33;13.60;;;;;;;16.61;74.12;101714.91;5979877;29;20252;-59
2021/08/11 05:14:47;;;;;;;17.03;14.63;;;;;;;16.54;74.25;101724.69;5962369;29;20232;-59
2021/08/11 05:18:08;;;;;;;15.60;14.03;;;;;;;16.18;75.68;101725.38;5978966;29;20248;-60
2021/08/11 05:21:29;;;;;;;17.07;15.43;;;;;;;16.22;74.90;101724.44;5961183;29;20281;-58
2021/08/11 05:24:51;;;;;;;15.33;13.73;;;;;;;16.64;74.17;101721.91;5977482;29;20240;-60
2021/08/11 05:28:11;;;;;;;16.10;14.67;;;;;;;16.13;75.67;101728.97;5981673;29;20255;-60
2021/08/11 05:31:34;;;;;;;14.87;12.80;;;;;;;16.68;73.79;101718.31;5957428;29;20245;-59
2021/08/11 05:34:54;;;;;;;17.20;14.23;;;;;;;16.70;74.13;101730.50;5971553;29;20248;-60
2021/08/11 05:38:15;;;;;;;15.77;14.07;;;;;;;16.48;73.85;101734.47;5966162;29;20616;-59
2021/08/11 05:41:36;;;;;;;14.90;13.50;;;;;;;16.98;72.80;101729.97;5957217;29;20237;-59
2021/08/11 05:44:56;;;;;;;15.17;13.70;;;;;;;16.84;72.98;101726.78;5971526;29;20251;-61
2021/08/11 05:48:19;;;;;;;12.70;11.47;;;;;;;17.17;71.60;101727.81;5967077;29;20326;-60
2021/08/11 05:51:40;;;;;;;17.20;12.60;;;;;;;17.06;72.05;101738.59;5978124;29;20619;-60
2021/08/11 05:55:01;;;;;;;12.87;11.57;;;;;;;17.51;70.83;101737.59;5977993;29;20886;-60
2021/08/11 05:58:21;;;;;;;13.87;12.43;;;;;;;17.57;70.08;101741.84;5960034;29;20266;-60
2021/08/11 06:01:42;;;;;;;12.83;11.60;;;;;;;17.85;69.63;101739.44;5974454;29;20249;-60
2021/08/11 06:05:05;;;;;;;12.27;11.07;;;;;;;18.06;68.48;101746.78;5974970;29;20257;-60
2021/08/11 06:08:26;;;;;;;14.47;13.10;;;;;;;17.97;69.01;101741.78;5965076;29;20252;-60
2021/08/11 06:11:47;;;;;;;13.87;12.53;;;;;;;17.87;69.08;101741.16;5975958;29;20232;-61
2021/08/11 06:15:09;;;;;;;14.50;13.10;;;;;;;17.98;68.51;101746.13;5960774;29;20232;-59
2021/08/11 06:18:30;;;;;;;13.40;11.33;;;;;;;17.81;69.13;101743.88;5975707;29;20244;-60
2021/08/11 06:21:52;;;;;;;13.02;11.57;;;;;;;18.25;68.08;101741.91;5979196;29;20259;-60
2021/08/11 06:25:14;;;;;;;12.90;11.60;;;;;;;18.25;67.61;101747.19;5958473;29;20229;-60
2021/08/11 06:28:35;;;;;;;15.73;10.67;;;;;;;18.46;67.30;101743.13;5961015;29;20248;-60
2021/08/11 06:31:56;;;;;;;13.60;10.97;;;;;;;18.49;66.96;101750.06;5964301;29;20240;-60
2021/08/11 06:35:17;;;;;;;11.73;10.53;;;;;;;18.22;67.31;101754.31;5967096;29;20232;-59
2021/08/11 06:38:40;;;;;;;12.93;10.37;;;;;;;18.05;68.38;101752.13;5963491;29;20248;-60
2021/08/11 06:42:01;;;;;;;10.60;9.53;;;;;;;18.29;67.23;101763.81;5978329;29;20614;-59
2021/08/11 06:45:36;;;;;;;12.82;10.52;;;;;;;17.87;68.64;101764.88;5958163;29;20256;-59
2021/08/11 06:49:00;;;;;;;12.07;9.87;;;;;;;18.29;67.33;101759.38;5976638;29;20326;-60
2021/08/11 06:52:22;;;;;;;13.05;10.35;;;;;;;18.16;67.15;101763.25;5985357;29;20375;-60
2021/08/11 06:55:45;;;;;;;9.63;8.40;;;;;;;18.29;66.81;101764.66;5965539;29;20240;-59
2021/08/11 06:59:06;;;;;;;10.93;8.97;;;;;;;18.60;65.75;101761.19;5976232;29;20263;-59
2021/08/11 07:02:27;;;;;;;9.30;8.32;;;;;;;18.86;64.79;101763.16;5981042;29;20331;-59
2021/08/11 07:05:48;;;;;;;12.13;8.00;;;;;;;19.02;64.17;101766.19;5971439;29;20308;-59
2021/08/11 07:09:09;;;;;;;11.90;7.93;;;;;;;18.74;65.01;101767.88;5962649;29;20252;-59
2021/08/11 07:12:31;;;;;;;10.37;9.27;;;;;;;18.79;64.98;101771.25;5968956;29;20236;-60
2021/08/11 07:15:53;;;;;;;11.70;8.65;;;;;;;18.97;64.19;101770.75;5970227;29;20684;-61
2021/08/11 07:19:14;;;;;;;9.93;7.63;;;;;;;18.97;63.65;101770.75;5981125;29;20248;-60
2021/08/11 07:22:34;;;;;;;10.68;8.82;;;;;;;18.75;64.42;101774.88;5976237;29;20318;-59
2021/08/11 07:25:55;;;;;;;8.15;7.43;;;;;;;18.83;63.80;101784.34;5985058;29;20621;-60
2021/08/11 07:29:18;;;;;;;8.90;8.00;;;;;;;19.06;63.21;101785.47;5978655;29;20643;-60
2021/08/11 07:32:39;;;;;;;10.13;7.13;;;;;;;18.67;64.64;101783.88;5960202;29;20252;-59
2021/08/11 07:36:00;;;;;;;9.75;7.45;;;;;;;18.96;63.55;101790.13;5979082;29;20236;-59
2021/08/11 07:39:21;;;;;;;7.40;6.75;;;;;;;18.82;63.47;101782.59;5965705;29;20488;-59
2021/08/11 07:42:44;;;;;;;8.25;6.47;;;;;;;18.89;63.75;101791.22;5977785;29;20260;-60
2021/08/11 07:46:06;;;;;;;9.30;8.00;;;;;;;19.28;62.83;101802.38;5982571;29;20227;-59
2021/08/11 07:49:27;;;;;;;7.68;5.93;;;;;;;19.34;62.99;101797.84;5968927;29;20232;-60
2021/08/11 07:52:48;;;;;;;8.65;7.03;;;;;;;19.80;61.43;101799.09;5981191;29;20241;-59
2021/08/11 07:56:09;;;;;;;10.45;7.78;;;;;;;19.34;62.69;101800.47;5964812;29;20256;-59
2021/08/11 07:59:31;;;;;;;8.70;6.50;;;;;;;18.91;64.00;101813.16;5968989;29;20327;-59
2021/08/11 08:02:53;;;;;;;8.48;6.68;;;;;;;19.41;62.68;101808.16;5983193;29;20235;-60
2021/08/11 08:06:14;;;;;;;8.98;7.00;;;;;;;19.37;61.29;101806.53;5975988;29;20232;-60
2021/08/11 08:09:35;;;;;;;10.32;6.78;;;;;;;19.38;61.65;101805.59;5960336;29;20240;-60
2021/08/11 08:12:55;;;;;;;9.32;7.53;;;;;;;19.99;60.08;101804.66;5971176;29;20233;-60
2021/08/11 08:16:17;;;;;;;6.40;5.10;;;;;;;20.45;58.94;101808.34;5982664;29;20735;-60
2021/08/11 08:19:39;;;;;;;9.18;6.65;;;;;;;20.59;58.39;101806.13;5974561;29;20552;-60
2021/08/11 08:23:00;;;;;;;10.18;5.63;;;;;;;21.03;57.09;101810.72;5959567;29;20240;-59
2021/08/11 08:26:21;;;;;;;8.13;7.03;;;;;;;20.89;56.85;101815.69;5961979;29;20654;-60
2021/08/11 08:29:42;;;;;;;7.78;5.88;;;;;;;20.59;57.10;101808.78;5978374;29;20247;-58
2021/08/11 08:33:03;;;;;;;11.68;6.43;;;;;;;21.07;56.53;101814.13;5980398;29;20240;-60
2021/08/11 08:36:25;;;;;;;8.70;6.40;;;;;;;20.69;57.46;101811.97;5982219;29;20240;-60
2021/08/11 08:39:46;;;;;;;7.32;5.97;;;;;;;21.11;56.85;101815.75;5960186;29;20244;-59
2021/08/11 08:43:08;;;;;;;8.05;5.93;;;;;;;21.38;54.88;101809.41;5973177;29;20231;-59
2021/08/11 08:46:30;;;;;;;8.00;5.70;;;;;;;22.03;53.67;101822.75;5982087;29;20537;-60
2021/08/11 08:49:52;;;;;;;7.40;5.10;;;;;;;22.01;53.27;101819.31;5978375;29;20244;-60
2021/08/11 08:53:21;;;;;;;7.82;5.75;;;;;;;22.20;52.41;101822.94;5981419;29;20271;-60
2021/08/11 08:56:42;;;;;;;7.38;6.60;;;;;;;21.14;53.40;101819.13;5976099;29;20244;-60
2021/08/11 09:00:06;;;;;;;8.30;7.47;;;;;;;19.83;57.07;101821.00;5964754;29;20611;-60
2021/08/11 09:03:27;;;;;;;6.88;6.18;;;;;;;21.56;53.73;101820.25;5978946;29;20232;-60
2021/08/11 09:06:48;;;;;;;8.02;5.88;;;;;;;21.54;53.81;101816.75;5972569;29;20261;-61
2021/08/11 09:10:16;;;;;;;6.97;5.82;;;;;;;21.37;55.44;101818.28;5976971;29;20244;-61
2021/08/11 09:13:37;;;;;;;6.68;5.95;;;;;;;21.39;55.87;101819.06;5960951;29;20650;-59
2021/08/11 09:16:59;;;;;;;5.75;5.22;;;;;;;21.57;55.99;101821.97;5963025;29;20240;-60
2021/08/11 09:20:24;;;;;;;5.05;4.55;;;;;;;22.11;53.67;101822.44;5973077;29;20394;-60
2021/08/11 09:23:48;;;;;;;6.18;5.63;;;;;;;21.76;54.62;101822.94;5974774;29;20243;-60
2021/08/11 09:27:23;;;;;;;8.88;5.55;;;;;;;21.70;54.67;101823.19;5979844;29;20240;-59
2021/08/11 09:30:44;;;;;;;8.50;5.88;;;;;;;21.85;53.76;101832.34;5968685;29;20240;-60
2021/08/11 09:34:07;;;;;;;6.85;5.38;;;;;;;22.05;53.15;101836.81;5971021;29;20244;-60
2021/08/11 09:37:39;;;;;;;6.30;5.25;;;;;;;22.15;51.65;101834.66;5963779;29;20358;-60
2021/08/11 09:41:01;;;;;;;8.15;5.32;;;;;;;22.05;51.72;101838.63;5971776;29;20248;-59
2021/08/11 09:44:23;;;;;;;5.50;4.75;;;;;;;21.77;52.03;101830.00;5975245;29;20479;-60
2021/08/11 09:47:59;;;;;;;4.45;3.90;;;;;;;21.89;49.32;101831.28;5965269;29;20244;-60
2021/08/11 09:51:19;;;;;;;6.68;4.93;;;;;;;21.20;49.79;101839.25;5973852;29;20235;-59
2021/08/11 09:54:58;;;;;;;5.97;4.25;;;;;;;20.78;48.79;101843.41;5973113;29;20569;-60
2021/08/11 09:58:19;;;;;;;4.28;3.83;;;;;;;20.39;50.53;101833.22;5968075;29;20286;-60
2021/08/11 10:01:41;;;;;;;4.93;4.47;;;;;;;20.97;51.56;101837.44;5967051;29;20673;-61
2021/08/11 10:05:02;;;;;;;7.60;4.45;;;;;;;21.74;51.47;101834.56;5976282;29;20236;-60
2021/08/11 10:08:31;;;;;;;4.53;4.13;;;;;;;22.25;49.51;101836.03;5971170;29;20235;-59
2021/08/11 10:11:54;;;;;;;4.18;3.78;;;;;;;22.07;48.84;101834.13;5970256;29;20318;-60
2021/08/11 10:15:15;;;;;;;5.32;4.82;;;;;;;22.53;48.21;101825.09;5976555;29;20266;-60
2021/08/11 10:18:40;;;;;;;5.97;4.18;;;;;;;23.46;46.06;101834.22;5971324;29;20499;-59
2021/08/11 10:22:02;;;;;;;4.60;4.15;;;;;;;24.10;43.11;101831.16;5978334;29;20239;-60
2021/08/11 10:25:25;;;;;;;4.90;4.45;;;;;;;24.62;43.56;101832.09;5986555;29;20240;-60
2021/08/11 10:28:47;;;;;;;3.97;3.60;;;;;;;24.66;40.75;101841.66;5978074;29;20231;-60
2021/08/11 10:32:08;;;;;;;6.22;3.53;;;;;;;22.44;45.80;101825.50;5978308;29;20259;-59
2021/08/11 10:35:31;;;;;;;4.00;3.60;;;;;;;22.21;46.74;101835.25;5967814;29;20240;-59
2021/08/11 10:38:55;;;;;;;4.53;3.90;;;;;;;22.28;48.60;101835.91;5957066;29;20236;-60
2021/08/11 10:42:17;;;;;;;3.60;2.42;;;;;;;22.49;46.43;101838.56;5977326;29;20300;-60
2021/08/11 10:45:39;;;;;;;3.60;3.10;;;;;;;23.50;45.11;101828.72;5980688;29;20501;-60
2021/08/11 10:49:02;;;;;;;3.85;2.88;;;;;;;23.46;45.13;101827.13;5970751;29;20362;-60
2021/08/11 10:52:26;;;;;;;3.45;3.15;;;;;;;23.93;44.86;101831.97;5958599;29;20350;-61
2021/08/11 10:55:49;;;;;;;8.05;3.22;;;;;;;24.29;45.40;101833.75;5971116;29;20236;-60
2021/08/11 10:59:44;;;;;;;4.40;3.65;;;;;;;23.74;43.50;101829.31;5958707;29;20237;-60
2021/08/11 11:03:05;;;;;;;6.90;3.33;;;;;;;23.50;45.57;101827.88;5964785;29;20618;-59
2021/08/11 11:06:51;;;;;;;3.75;3.30;;;;;;;24.10;44.62;101833.81;5973342;29;20783;-59
2021/08/11 11:10:28;;;;;;;3.45;3.15;;;;;;;23.87;43.92;101832.28;5971227;29;20635;-59
2021/08/11 11:13:49;;;;;;;4.47;3.08;;;;;;;24.78;42.75;101819.72;5980807;29;20236;-60
2021/08/11 11:17:09;;;;;;;4.70;2.45;;;;;;;23.53;44.12;101830.34;5965556;29;20248;-60
2021/08/11 11:20:30;;;;;;;3.33;2.63;;;;;;;24.23;44.78;101819.88;5977800;29;20259;-61
2021/08/11 11:23:51;;;;;;;4.65;3.00;;;;;;;24.50;43.66;101829.09;5978391;29;20335;-60
2021/08/11 11:27:58;;;;;;;6.20;2.97;;;;;;;24.13;44.30;101825.66;5968782;29;20627;-60
2021/08/11 11:31:38;;;;;;;4.75;3.15;;;;;;;23.07;47.47;101829.84;5975089;29;20235;-59
2021/08/11 11:35:18;;;;;;;3.00;2.70;;;;;;;24.72;42.89;101828.03;5963117;29;20240;-61
2021/08/11 11:39:03;;;;;;;5.88;2.85;;;;;;;25.81;41.61;101826.53;5971329;29;20247;-59
2021/08/11 11:42:29;;;;;;;3.03;2.50;;;;;;;26.71;39.00;101817.69;5964868;29;20257;-59
2021/08/11 11:45:49;;;;;;;3.35;2.38;;;;;;;26.68;39.13;101809.88;5977766;29;20240;-60
2021/08/11 11:49:18;;;;;;;4.25;2.47;;;;;;;25.79;40.50;101817.78;5976960;29;20322;-59
2021/08/11 11:52:40;;;;;;;4.40;3.67;;;;;;;24.62;43.19;101827.66;5983401;29;20223;-59
2021/08/11 11:56:12;;;;;;;4.55;3.72;;;;;;;23.54;45.45;101819.66;5974880;29;20960;-60
2021/08/11 11:59:33;;;;;;;4.18;3.65;;;;;;;24.75;42.67;101819.88;5969354;29;20623;-61
2021/08/11 12:02:55;;;;;;;4.18;2.92;;;;;;;23.56;45.10;101827.56;5979941;29;20247;-60
2021/08/11 12:06:33;;;;;;;3.35;2.80;;;;;;;24.02;43.29;101814.72;5959873;29;20582;-60
2021/08/11 12:09:55;;;;;;;3.50;2.70;;;;;;;23.33;44.80;101821.53;5973727;29;20232;-60
2021/08/11 12:13:16;;;;;;;4.43;2.05;;;;;;;23.10;45.53;101819.09;5983618;29;20231;-60
2021/08/11 12:16:39;;;;;;;3.10;2.58;;;;;;;24.37;43.62;101826.22;5967941;29;20343;-59
2021/08/11 12:20:00;;;;;;;3.05;2.80;;;;;;;26.07;39.56;101814.38;5975252;29;20244;-61
2021/08/11 12:23:24;;;;;;;5.13;2.53;;;;;;;28.52;34.23;101810.44;5979942;29;20326;-62
2021/08/11 12:26:45;;;;;;;3.00;2.70;;;;;;;29.00;34.03;101817.78;5968094;29;20237;-60
2021/08/11 12:30:17;;;;;;;7.88;2.75;;;;;;;27.01;35.91;101822.09;5974768;29;20235;-60
2021/08/11 12:33:40;;;;;;;3.13;2.22;;;;;;;29.07;32.46;101821.75;5970885;29;20780;-60
2021/08/11 12:37:01;;;;;;;3.20;2.45;;;;;;;29.59;31.56;101817.13;5976328;29;20240;-60
2021/08/11 12:40:32;;;;;;;3.38;2.78;;;;;;;33.04;27.05;101811.63;5979439;29;20248;-60
2021/08/11 12:43:56;;;;;;;2.72;2.38;;;;;;;29.26;31.89;101810.59;5974573;29;20593;-61
2021/08/11 12:47:17;;;;;;;2.92;2.28;;;;;;;30.80;29.39;101799.78;5979668;29;20247;-62
2021/08/11 12:50:38;;;;;;;2.50;2.30;;;;;;;25.98;37.32;101820.25;5979361;29;20240;-60
2021/08/11 12:54:04;;;;;;;3.38;2.92;;;;;;;27.14;36.38;101806.97;5974287;29;20247;-61
2021/08/11 12:57:47;;;;;;;4.35;2.15;;;;;;;29.91;32.23;101806.66;5974073;29;20232;-60
2021/08/11 13:01:08;;;;;;;2.38;2.17;;;;;;;32.52;27.24;101800.84;5977856;29;20245;-60
2021/08/11 13:04:29;;;;;;;2.50;1.98;;;;;;;32.57;27.03;101811.25;5979016;29;20239;-60
2021/08/11 13:07:52;;;;;;;2.25;1.90;;;;;;;33.87;24.70;101798.72;5969306;29;20272;-60
2021/08/11 13:11:13;;;;;;;4.05;2.67;;;;;;;35.22;23.15;101806.59;5960413;29;20228;-60
2021/08/11 13:14:50;;;;;;;2.92;2.60;;;;;;;34.58;24.87;101807.44;5976478;29;20239;-59
2021/08/11 13:18:24;;;;;;;3.40;3.10;;;;;;;27.00;35.75;101812.34;5963836;29;20235;-61
2021/08/11 13:21:45;;;;;;;3.35;2.83;;;;;;;27.82;35.38;101810.63;5968352;29;20244;-60
2021/08/11 13:25:07;;;;;;;3.00;2.80;;;;;;;28.74;33.11;101816.97;5964910;29;20646;-59
2021/08/11 13:28:28;;;;;;;3.20;2.33;;;;;;;30.41;29.98;101804.66;5980711;29;20240;-60
2021/08/11 13:31:51;;;;;;;2.55;2.38;;;;;;;31.00;29.86;101794.72;5973764;29;20228;-59
2021/08/11 13:35:13;;;;;;;4.97;2.63;;;;;;;31.59;28.86;101807.81;5974067;29;20543;-60
2021/08/11 13:38:34;;;;;;;2.65;2.40;;;;;;;29.08;32.45;101815.44;5970035;29;20339;-59
2021/08/11 13:41:55;;;;;;;3.95;2.63;;;;;;;24.87;40.21;101829.00;5976848;29;20324;-60
2021/08/11 13:45:16;;;;;;;3.10;2.70;;;;;;;26.41;38.53;101820.38;5975034;29;20239;-59
2021/08/11 13:48:38;;;;;;;2.63;2.42;;;;;;;28.02;34.34;101807.53;5959210;29;20236;-60
2021/08/11 13:51:59;;;;;;;2.95;2.67;;;;;;;26.42;37.86;101811.41;5980401;29;20348;-61
2021/08/11 13:55:20;;;;;;;4.05;2.90;;;;;;;26.51;38.48;101806.38;5970002;29;20232;-60
2021/08/11 13:58:41;;;;;;;4.88;2.85;;;;;;;26.01;38.84;101812.91;5955344;29;20556;-60
2021/08/11 14:02:02;;;;;;;2.47;2.28;;;;;;;29.25;31.99;101803.50;5970359;29;20248;-58
2021/08/11 14:05:25;;;;;;;3.25;3.05;;;;;;;30.59;30.72;101806.88;5975095;29;20239;-60
2021/08/11 14:08:46;;;;;;;4.13;2.95;;;;;;;30.08;32.14;101802.72;5973879;29;20575;-59
2021/08/11 14:12:07;;;;;;;2.70;2.45;;;;;;;29.76;32.94;101802.44;5976397;29;20261;-58
2021/08/11 14:15:27;;;;;;;2.50;2.30;;;;;;;29.77;32.41;101798.81;5973228;29;20248;-60
2021/08/11 14:18:48;;;;;;;3.45;3.15;;;;;;;29.97;32.54;101808.03;5978024;29;20228;-60
2021/08/11 14:22:11;;;;;;;2.95;2.70;;;;;;;29.45;32.96;101810.09;5967438;29;20326;-59
2021/08/11 14:25:32;;;;;;;2.40;2.20;;;;;;;30.45;31.72;101799.03;5970650;29;20243;-60
2021/08/11 14:28:54;;;;;;;3.33;3.03;;;;;;;27.87;35.36;101808.53;5978270;29;20271;-59
2021/08/11 14:32:15;;;;;;;2.92;2.30;;;;;;;27.58;35.08;101808.63;5970310;29;20336;-58
2021/08/11 14:35:36;;;;;;;3.38;2.45;;;;;;;26.75;35.65;101802.31;5977583;29;20259;-59
2021/08/11 14:38:59;;;;;;;2.53;1.83;;;;;;;26.88;34.29;101805.94;5955520;29;20603;-58
2021/08/11 14:42:20;;;;;;;3.63;1.52;;;;;;;26.36;35.15;101807.28;5966235;29;20244;-59
2021/08/11 14:45:41;;;;;;;4.43;2.28;;;;;;;27.36;34.21;101793.13;5969606;29;20248;-59
2021/08/11 14:49:02;;;;;;;3.03;2.83;;;;;;;27.46;34.26;101798.75;5959870;29;20241;-60
2021/08/11 14:52:23;;;;;;;2.58;2.38;;;;;;;28.01;33.56;101792.41;5975932;29;20280;-61
2021/08/11 14:55:45;;;;;;;2.75;2.55;;;;;;;28.59;33.14;101802.81;5970195;29;20235;-60
2021/08/11 14:59:06;;;;;;;2.85;2.33;;;;;;;28.55;32.79;101798.63;5964532;29;20240;-59
2021/08/11 15:02:27;;;;;;;3.25;2.40;;;;;;;27.50;33.48;101800.25;5958097;29;20249;-60
2021/08/11 15:05:48;;;;;;;2.10;2.00;;;;;;;28.14;32.82;101802.31;5968905;29;20236;-60
2021/08/11 15:09:09;;;;;;;2.22;2.03;;;;;;;28.58;33.70;101793.06;5970970;29;20268;-59
2021/08/11 15:12:31;;;;;;;2.60;2.08;;;;;;;28.93;33.33;101792.41;5976755;29;20260;-60
2021/08/11 15:15:52;;;;;;;1.75;1.65;;;;;;;27.75;33.51;101798.66;5975792;29;20302;-61
2021/08/11 15:19:13;;;;;;;2.08;1.98;;;;;;;27.61;33.72;101797.75;5980416;29;20247;-60
2021/08/11 15:22:34;;;;;;;3.28;2.47;;;;;;;27.53;34.07;101794.72;5980966;29;20523;-61
2021/08/11 15:25:55;;;;;;;3.55;2.40;;;;;;;27.31;35.12;101792.56;5967005;29;20245;-60
2021/08/11 15:29:17;;;;;;;2.80;2.10;;;;;;;28.02;34.08;101779.91;5970276;29;20243;-59
2021/08/11 15:32:38;;;;;;;2.50;2.33;;;;;;;28.32;33.55;101787.66;5973768;29;20355;-61
2021/08/11 15:35:59;;;;;;;3.15;2.53;;;;;;;27.74;33.42;101791.56;5965723;29;20236;-61
2021/08/11 15:39:20;;;;;;;3.42;2.17;;;;;;;25.71;37.79;101789.72;5977796;29;20235;-61